<?xml version="1.0" encoding="UTF-8" standalone="no" ?>
<gpx xmlns="http://www.topografix.com/GPX/1/1" xmlns:xsi="http://www.w3.org/2001/XMLSchema-instance" xsi:schemaLocation="http://www.topografix.com/GPX/1/1 http://www.topografix.com/GPX/1/1/gpx.xsd" version="1.1" creator="VisuGPX - https://www.visugpx.com">
  <metadata>
    <name>10610670-ARAT N 4 Montolieu</name>
  </metadata>
  <trk>
    <name><![CDATA[10610670-ARAT N 4 Montolieu]]></name>
    <trkseg>
      <trkpt lat="43.30752" lon="2.21879">
        <ele>156</ele>
        <time>2019-10-13T14:25:38Z</time>
      </trkpt>
      <trkpt lat="43.30811" lon="2.21918">
        <ele>162</ele>
        <time>2019-10-13T14:27:05Z</time>
      </trkpt>
      <trkpt lat="43.30919" lon="2.21994">
        <ele>183</ele>
        <time>2019-10-13T14:29:47Z</time>
      </trkpt>
      <trkpt lat="43.31034" lon="2.21997">
        <ele>192</ele>
        <time>2019-10-13T14:32:21Z</time>
      </trkpt>
      <trkpt lat="43.31107" lon="2.22088">
        <ele>204</ele>
        <time>2019-10-13T14:34:32Z</time>
      </trkpt>
      <trkpt lat="43.31271" lon="2.22088">
        <ele>219</ele>
        <time>2019-10-13T14:38:11Z</time>
      </trkpt>
      <trkpt lat="43.31374" lon="2.22146">
        <ele>231</ele>
        <time>2019-10-13T14:40:40Z</time>
      </trkpt>
      <trkpt lat="43.31434" lon="2.22176">
        <ele>236</ele>
        <time>2019-10-13T14:42:05Z</time>
      </trkpt>
      <trkpt lat="43.31425" lon="2.22252">
        <ele>247</ele>
        <time>2019-10-13T14:43:20Z</time>
      </trkpt>
      <trkpt lat="43.31445" lon="2.22319">
        <ele>252</ele>
        <time>2019-10-13T14:44:30Z</time>
      </trkpt>
      <trkpt lat="43.31407" lon="2.22294">
        <ele>251</ele>
        <time>2019-10-13T14:45:26Z</time>
      </trkpt>
      <trkpt lat="43.31401" lon="2.22316">
        <ele>252</ele>
        <time>2019-10-13T14:45:49Z</time>
      </trkpt>
      <trkpt lat="43.31445" lon="2.22376">
        <ele>259</ele>
        <time>2019-10-13T14:47:12Z</time>
      </trkpt>
      <trkpt lat="43.31509" lon="2.2247">
        <ele>270</ele>
        <time>2019-10-13T14:49:17Z</time>
      </trkpt>
      <trkpt lat="43.31551" lon="2.22586">
        <ele>279</ele>
        <time>2019-10-13T14:51:23Z</time>
      </trkpt>
      <trkpt lat="43.31571" lon="2.22801">
        <ele>281</ele>
        <time>2019-10-13T14:54:53Z</time>
      </trkpt>
      <trkpt lat="43.31579" lon="2.22906">
        <ele>282</ele>
        <time>2019-10-13T14:56:35Z</time>
      </trkpt>
      <trkpt lat="43.31579" lon="2.22999">
        <ele>284</ele>
        <time>2019-10-13T14:58:06Z</time>
      </trkpt>
      <trkpt lat="43.31579" lon="2.23082">
        <ele>284</ele>
        <time>2019-10-13T14:59:26Z</time>
      </trkpt>
      <trkpt lat="43.31571" lon="2.23165">
        <ele>285</ele>
        <time>2019-10-13T15:00:48Z</time>
      </trkpt>
      <trkpt lat="43.3156" lon="2.23263">
        <ele>287</ele>
        <time>2019-10-13T15:02:24Z</time>
      </trkpt>
      <trkpt lat="43.31565" lon="2.23328">
        <ele>287</ele>
        <time>2019-10-13T15:03:27Z</time>
      </trkpt>
      <trkpt lat="43.31552" lon="2.23433">
        <ele>286</ele>
        <time>2019-10-13T15:05:11Z</time>
      </trkpt>
      <trkpt lat="43.3156" lon="2.23689">
        <ele>286</ele>
        <time>2019-10-13T15:09:20Z</time>
      </trkpt>
      <trkpt lat="43.31439" lon="2.23783">
        <ele>294</ele>
        <time>2019-10-13T15:12:25Z</time>
      </trkpt>
      <trkpt lat="43.31518" lon="2.23801">
        <ele>297</ele>
        <time>2019-10-13T15:14:12Z</time>
      </trkpt>
      <trkpt lat="43.31544" lon="2.23858">
        <ele>299</ele>
        <time>2019-10-13T15:15:17Z</time>
      </trkpt>
      <trkpt lat="43.31516" lon="2.23941">
        <ele>310</ele>
        <time>2019-10-13T15:16:46Z</time>
      </trkpt>
      <trkpt lat="43.31516" lon="2.24068">
        <ele>315</ele>
        <time>2019-10-13T15:18:49Z</time>
      </trkpt>
      <trkpt lat="43.31489" lon="2.24136">
        <ele>317</ele>
        <time>2019-10-13T15:20:05Z</time>
      </trkpt>
      <trkpt lat="43.31487" lon="2.2423">
        <ele>320</ele>
        <time>2019-10-13T15:21:36Z</time>
      </trkpt>
      <trkpt lat="43.31657" lon="2.24411">
        <ele>323</ele>
        <time>2019-10-13T15:26:23Z</time>
      </trkpt>
      <trkpt lat="43.31789" lon="2.24502">
        <ele>304</ele>
        <time>2019-10-13T15:29:40Z</time>
      </trkpt>
      <trkpt lat="43.31714" lon="2.24793">
        <ele>295</ele>
        <time>2019-10-13T15:34:40Z</time>
      </trkpt>
      <trkpt lat="43.31794" lon="2.25115">
        <ele>303</ele>
        <time>2019-10-13T15:40:10Z</time>
      </trkpt>
      <trkpt lat="43.31789" lon="2.25352">
        <ele>300</ele>
        <time>2019-10-13T15:44:00Z</time>
      </trkpt>
      <trkpt lat="43.31666" lon="2.25637">
        <ele>290</ele>
        <time>2019-10-13T15:49:22Z</time>
      </trkpt>
      <trkpt lat="43.31657" lon="2.25607">
        <ele>290</ele>
        <time>2019-10-13T15:49:53Z</time>
      </trkpt>
      <trkpt lat="43.31542" lon="2.2554">
        <ele>300</ele>
        <time>2019-10-13T15:52:40Z</time>
      </trkpt>
      <trkpt lat="43.31463" lon="2.25546">
        <ele>305</ele>
        <time>2019-10-13T15:54:26Z</time>
      </trkpt>
      <trkpt lat="43.31202" lon="2.2537">
        <ele>306</ele>
        <time>2019-10-13T16:00:54Z</time>
      </trkpt>
      <trkpt lat="43.31158" lon="2.25309">
        <ele>307</ele>
        <time>2019-10-13T16:02:17Z</time>
      </trkpt>
      <trkpt lat="43.30994" lon="2.25145">
        <ele>297</ele>
        <time>2019-10-13T16:06:48Z</time>
      </trkpt>
      <trkpt lat="43.30937" lon="2.25048">
        <ele>293</ele>
        <time>2019-10-13T16:08:49Z</time>
      </trkpt>
      <trkpt lat="43.30884" lon="2.24981">
        <ele>289</ele>
        <time>2019-10-13T16:10:25Z</time>
      </trkpt>
      <trkpt lat="43.3073" lon="2.2503">
        <ele>281</ele>
        <time>2019-10-13T16:13:56Z</time>
      </trkpt>
      <trkpt lat="43.30526" lon="2.25255">
        <ele>272</ele>
        <time>2019-10-13T16:19:45Z</time>
      </trkpt>
      <trkpt lat="43.30385" lon="2.25279">
        <ele>262</ele>
        <time>2019-10-13T16:22:55Z</time>
      </trkpt>
      <trkpt lat="43.30389" lon="2.25139">
        <ele>265</ele>
        <time>2019-10-13T16:25:11Z</time>
      </trkpt>
      <trkpt lat="43.30336" lon="2.25042">
        <ele>265</ele>
        <time>2019-10-13T16:27:08Z</time>
      </trkpt>
      <trkpt lat="43.30504" lon="2.2486">
        <ele>273</ele>
        <time>2019-10-13T16:31:54Z</time>
      </trkpt>
      <trkpt lat="43.3035" lon="2.24654">
        <ele>267</ele>
        <time>2019-10-13T16:36:41Z</time>
      </trkpt>
      <trkpt lat="43.30469" lon="2.23664">
        <ele>254</ele>
        <time>2019-10-13T16:52:55Z</time>
      </trkpt>
      <trkpt lat="43.30469" lon="2.23588">
        <ele>248</ele>
        <time>2019-10-13T16:54:09Z</time>
      </trkpt>
      <trkpt lat="43.30465" lon="2.23494">
        <ele>241</ele>
        <time>2019-10-13T16:55:40Z</time>
      </trkpt>
      <trkpt lat="43.30495" lon="2.23521">
        <ele>241</ele>
        <time>2019-10-13T16:56:28Z</time>
      </trkpt>
      <trkpt lat="43.30511" lon="2.23418">
        <ele>241</ele>
        <time>2019-10-13T16:58:10Z</time>
      </trkpt>
      <trkpt lat="43.30526" lon="2.23362">
        <ele>240</ele>
        <time>2019-10-13T16:59:08Z</time>
      </trkpt>
      <trkpt lat="43.30523" lon="2.2333">
        <ele>242</ele>
        <time>2019-10-13T16:59:40Z</time>
      </trkpt>
      <trkpt lat="43.3052" lon="2.23289">
        <ele>241</ele>
        <time>2019-10-13T17:00:20Z</time>
      </trkpt>
      <trkpt lat="43.30509" lon="2.23242">
        <ele>242</ele>
        <time>2019-10-13T17:01:08Z</time>
      </trkpt>
      <trkpt lat="43.30509" lon="2.23184">
        <ele>242</ele>
        <time>2019-10-13T17:02:04Z</time>
      </trkpt>
      <trkpt lat="43.30531" lon="2.23127">
        <ele>243</ele>
        <time>2019-10-13T17:03:07Z</time>
      </trkpt>
      <trkpt lat="43.30543" lon="2.2307">
        <ele>243</ele>
        <time>2019-10-13T17:04:04Z</time>
      </trkpt>
      <trkpt lat="43.30558" lon="2.23032">
        <ele>241</ele>
        <time>2019-10-13T17:04:46Z</time>
      </trkpt>
      <trkpt lat="43.30534" lon="2.23016">
        <ele>239</ele>
        <time>2019-10-13T17:05:22Z</time>
      </trkpt>
      <trkpt lat="43.30531" lon="2.22987">
        <ele>236</ele>
        <time>2019-10-13T17:05:50Z</time>
      </trkpt>
      <trkpt lat="43.30536" lon="2.22949">
        <ele>231</ele>
        <time>2019-10-13T17:06:28Z</time>
      </trkpt>
      <trkpt lat="43.30515" lon="2.22949">
        <ele>230</ele>
        <time>2019-10-13T17:06:56Z</time>
      </trkpt>
      <trkpt lat="43.30505" lon="2.22888">
        <ele>222</ele>
        <time>2019-10-13T17:07:57Z</time>
      </trkpt>
      <trkpt lat="43.30502" lon="2.22872">
        <ele>220</ele>
        <time>2019-10-13T17:08:13Z</time>
      </trkpt>
      <trkpt lat="43.30513" lon="2.2282">
        <ele>214</ele>
        <time>2019-10-13T17:09:05Z</time>
      </trkpt>
      <trkpt lat="43.3052" lon="2.22653">
        <ele>195</ele>
        <time>2019-10-13T17:11:48Z</time>
      </trkpt>
      <trkpt lat="43.30503" lon="2.22542">
        <ele>194</ele>
        <time>2019-10-13T17:13:38Z</time>
      </trkpt>
      <trkpt lat="43.30511" lon="2.22492">
        <ele>190</ele>
        <time>2019-10-13T17:14:28Z</time>
      </trkpt>
      <trkpt lat="43.30506" lon="2.22462">
        <ele>189</ele>
        <time>2019-10-13T17:14:57Z</time>
      </trkpt>
      <trkpt lat="43.30502" lon="2.224">
        <ele>185</ele>
        <time>2019-10-13T17:15:58Z</time>
      </trkpt>
      <trkpt lat="43.30489" lon="2.22382">
        <ele>184</ele>
        <time>2019-10-13T17:16:23Z</time>
      </trkpt>
      <trkpt lat="43.30473" lon="2.22351">
        <ele>183</ele>
        <time>2019-10-13T17:16:59Z</time>
      </trkpt>
      <trkpt lat="43.30417" lon="2.22353">
        <ele>183</ele>
        <time>2019-10-13T17:18:14Z</time>
      </trkpt>
      <trkpt lat="43.30377" lon="2.22379">
        <ele>179</ele>
        <time>2019-10-13T17:19:13Z</time>
      </trkpt>
      <trkpt lat="43.3036" lon="2.22368">
        <ele>176</ele>
        <time>2019-10-13T17:19:38Z</time>
      </trkpt>
      <trkpt lat="43.30304" lon="2.22365">
        <ele>169</ele>
        <time>2019-10-13T17:20:53Z</time>
      </trkpt>
      <trkpt lat="43.30262" lon="2.22398">
        <ele>165</ele>
        <time>2019-10-13T17:21:58Z</time>
      </trkpt>
      <trkpt lat="43.30244" lon="2.22404">
        <ele>163</ele>
        <time>2019-10-13T17:22:22Z</time>
      </trkpt>
      <trkpt lat="43.30203" lon="2.22438">
        <ele>161</ele>
        <time>2019-10-13T17:23:26Z</time>
      </trkpt>
      <trkpt lat="43.30089" lon="2.22406">
        <ele>156</ele>
        <time>2019-10-13T17:26:02Z</time>
      </trkpt>
      <trkpt lat="43.30109" lon="2.2233">
        <ele>155</ele>
        <time>2019-10-13T17:27:20Z</time>
      </trkpt>
      <trkpt lat="43.30098" lon="2.22204">
        <ele>153</ele>
        <time>2019-10-13T17:29:23Z</time>
      </trkpt>
      <trkpt lat="43.30097" lon="2.22152">
        <ele>151</ele>
        <time>2019-10-13T17:30:14Z</time>
      </trkpt>
      <trkpt lat="43.30094" lon="2.22069">
        <ele>145</ele>
        <time>2019-10-13T17:31:35Z</time>
      </trkpt>
      <trkpt lat="43.30178" lon="2.22044">
        <ele>149</ele>
        <time>2019-10-13T17:33:29Z</time>
      </trkpt>
      <trkpt lat="43.30246" lon="2.21952">
        <ele>153</ele>
        <time>2019-10-13T17:35:37Z</time>
      </trkpt>
      <trkpt lat="43.30304" lon="2.21898">
        <ele>157</ele>
        <time>2019-10-13T17:37:10Z</time>
      </trkpt>
      <trkpt lat="43.30344" lon="2.21815">
        <ele>155</ele>
        <time>2019-10-13T17:38:47Z</time>
      </trkpt>
      <trkpt lat="43.30317" lon="2.21734">
        <ele>147</ele>
        <time>2019-10-13T17:40:13Z</time>
      </trkpt>
      <trkpt lat="43.30287" lon="2.21752">
        <ele>146</ele>
        <time>2019-10-13T17:40:57Z</time>
      </trkpt>
      <trkpt lat="43.30294" lon="2.21658">
        <ele>147</ele>
        <time>2019-10-13T17:42:29Z</time>
      </trkpt>
      <trkpt lat="43.30266" lon="2.2155">
        <ele>148</ele>
        <time>2019-10-13T17:44:20Z</time>
      </trkpt>
      <trkpt lat="43.30263" lon="2.21539">
        <ele>148</ele>
        <time>2019-10-13T17:44:31Z</time>
      </trkpt>
      <trkpt lat="43.30432" lon="2.21526">
        <ele>148</ele>
        <time>2019-10-13T17:48:17Z</time>
      </trkpt>
      <trkpt lat="43.30536" lon="2.21493">
        <ele>148</ele>
        <time>2019-10-13T17:50:40Z</time>
      </trkpt>
      <trkpt lat="43.30581" lon="2.21567">
        <ele>148</ele>
        <time>2019-10-13T17:52:13Z</time>
      </trkpt>
      <trkpt lat="43.3067" lon="2.21486">
        <ele>156</ele>
        <time>2019-10-13T17:54:36Z</time>
      </trkpt>
      <trkpt lat="43.30759" lon="2.21419">
        <ele>162</ele>
        <time>2019-10-13T17:56:51Z</time>
      </trkpt>
      <trkpt lat="43.30902" lon="2.21404">
        <ele>173</ele>
        <time>2019-10-13T18:00:03Z</time>
      </trkpt>
      <trkpt lat="43.30927" lon="2.21449">
        <ele>176</ele>
        <time>2019-10-13T18:00:58Z</time>
      </trkpt>
      <trkpt lat="43.30937" lon="2.21405">
        <ele>175</ele>
        <time>2019-10-13T18:01:42Z</time>
      </trkpt>
      <trkpt lat="43.30977" lon="2.21369">
        <ele>174</ele>
        <time>2019-10-13T18:02:46Z</time>
      </trkpt>
      <trkpt lat="43.30991" lon="2.2135">
        <ele>172</ele>
        <time>2019-10-13T18:03:12Z</time>
      </trkpt>
      <trkpt lat="43.31087" lon="2.21389">
        <ele>180</ele>
        <time>2019-10-13T18:05:26Z</time>
      </trkpt>
      <trkpt lat="43.3108" lon="2.21418">
        <ele>184</ele>
        <time>2019-10-13T18:05:56Z</time>
      </trkpt>
      <trkpt lat="43.3107" lon="2.2144">
        <ele>183</ele>
        <time>2019-10-13T18:06:21Z</time>
      </trkpt>
      <trkpt lat="43.31034" lon="2.21447">
        <ele>182</ele>
        <time>2019-10-13T18:07:09Z</time>
      </trkpt>
      <trkpt lat="43.31028" lon="2.21489">
        <ele>181</ele>
        <time>2019-10-13T18:07:51Z</time>
      </trkpt>
      <trkpt lat="43.30981" lon="2.21462">
        <ele>179</ele>
        <time>2019-10-13T18:08:59Z</time>
      </trkpt>
      <trkpt lat="43.30946" lon="2.21523">
        <ele>176</ele>
        <time>2019-10-13T18:10:14Z</time>
      </trkpt>
      <trkpt lat="43.30933" lon="2.21587">
        <ele>171</ele>
        <time>2019-10-13T18:11:19Z</time>
      </trkpt>
      <trkpt lat="43.30925" lon="2.2168">
        <ele>162</ele>
        <time>2019-10-13T18:12:50Z</time>
      </trkpt>
      <trkpt lat="43.30897" lon="2.21705">
        <ele>160</ele>
        <time>2019-10-13T18:13:34Z</time>
      </trkpt>
      <trkpt lat="43.30828" lon="2.21715">
        <ele>158</ele>
        <time>2019-10-13T18:15:07Z</time>
      </trkpt>
      <trkpt lat="43.30817" lon="2.21761">
        <ele>156</ele>
        <time>2019-10-13T18:15:54Z</time>
      </trkpt>
      <trkpt lat="43.3077" lon="2.21726">
        <ele>153</ele>
        <time>2019-10-13T18:17:05Z</time>
      </trkpt>
      <trkpt lat="43.3075" lon="2.21775">
        <ele>152</ele>
        <time>2019-10-13T18:18:00Z</time>
      </trkpt>
      <trkpt lat="43.30754" lon="2.21868">
        <ele>155</ele>
        <time>2019-10-13T18:19:30Z</time>
      </trkpt>
    </trkseg>
  </trk>
</gpx>